MRR weather

Moralar Airstrip
San Juan Evangelista, Veracruz, Mexico

Public forecast

Using degrees Celsius for public forecast. Weather courtesy of forecast.io.

Closest aviation weather report (METAR) to Moralar Airstrip

Closest report is Minatitl├ín/Coatzacoalcos National Airport, 34.0 nm (62.9 km) NNE. Retrieved 2020/02/24 00:43 UTC (1 hour ago):

MMMT 240043Z 00000KT 7SM SCT120 25/21 A2990 RMK 8/030

Closest aviation forecast (TAF) to Moralar Airstrip

Closest forecast is Minatitl├ín/Coatzacoalcos National Airport, 34.0 nm (62.9 km) NNE. Retrieved 2020-02-24 00:42 UTC (1 hour ago):

TAF COR TAF COR MMMT 240139Z 2400/2418 36010KT P6SM BKN030 FM240130 00000KT P6SM SCT015 SCT100 FM240900 00000KT 2SM BR OVC010 TEMPO 2412/2415 1SM BR OVC006 FM241600 12010KT 3SM HZ OVC010